createdAt,value
2023-05-13T00:02:08.596Z,13.10
2023-05-13T00:04:35.941Z,13.00
2023-05-13T00:07:03.728Z,13.00
2023-05-13T00:09:30.781Z,13.00
2023-05-13T00:11:58.864Z,12.90
2023-05-13T00:14:26.427Z,12.90
2023-05-13T00:16:53.677Z,12.90
2023-05-13T00:19:21.447Z,12.90
2023-05-13T00:21:51.833Z,12.80
2023-05-13T00:24:19.638Z,12.80
2023-05-13T00:26:47.977Z,12.80
2023-05-13T00:29:15.401Z,12.80
2023-05-13T00:31:42.915Z,12.70
2023-05-13T00:34:10.534Z,12.70
2023-05-13T00:36:37.976Z,12.70
2023-05-13T00:39:05.602Z,12.70
2023-05-13T00:41:33.195Z,12.70
2023-05-13T00:44:00.372Z,12.70
2023-05-13T00:46:31.406Z,12.70
2023-05-13T00:48:59.648Z,12.70
2023-05-13T00:51:26.961Z,12.60
2023-05-13T00:53:54.937Z,12.60
2023-05-13T00:56:24.615Z,12.60
2023-05-13T00:58:52.013Z,12.60
2023-05-13T01:01:31.279Z,12.60
2023-05-13T01:04:15.449Z,12.60
2023-05-13T01:06:54.518Z,12.60
2023-05-13T01:09:36.941Z,12.60
2023-05-13T01:12:08.621Z,12.60
2023-05-13T01:14:39.493Z,12.60
2023-05-13T01:17:12.060Z,12.60
2023-05-13T01:19:43.754Z,12.60
2023-05-13T01:22:13.651Z,12.60
2023-05-13T01:24:43.876Z,12.70
2023-05-13T01:27:14.414Z,12.70
2023-05-13T01:29:41.976Z,12.70
2023-05-13T01:32:10.813Z,12.80
2023-05-13T01:34:39.352Z,12.80
2023-05-13T01:37:06.828Z,12.80
2023-05-13T01:39:35.047Z,12.80
2023-05-13T01:42:02.325Z,12.80
2023-05-13T01:44:30.286Z,12.90
2023-05-13T01:46:58.376Z,12.90
2023-05-13T01:49:26.354Z,12.90
2023-05-13T01:51:53.974Z,12.80
2023-05-13T01:54:21.399Z,12.80
2023-05-13T01:56:48.649Z,12.80
2023-05-13T01:59:16.117Z,12.80
2023-05-13T02:01:43.461Z,12.80
2023-05-13T02:04:11.424Z,12.80
2023-05-13T02:06:38.940Z,12.80
2023-05-13T02:09:06.196Z,12.80
2023-05-13T02:11:33.556Z,12.80
2023-05-13T02:14:00.680Z,12.80
2023-05-13T02:16:28.512Z,12.80
2023-05-13T02:18:55.852Z,12.80
2023-05-13T02:21:25.653Z,12.80
2023-05-13T02:23:53.136Z,12.80
2023-05-13T02:26:20.245Z,12.80
2023-05-13T02:28:48.231Z,12.80
2023-05-13T02:31:15.375Z,12.70
2023-05-13T02:33:43.043Z,12.70
2023-05-13T02:36:10.302Z,12.70
2023-05-13T02:38:37.581Z,12.70
2023-05-13T02:41:05.275Z,12.70
2023-05-13T02:43:32.836Z,12.70
2023-05-13T02:46:01.133Z,12.80
2023-05-13T02:48:28.275Z,12.80
2023-05-13T02:50:55.482Z,12.80
2023-05-13T02:53:23.728Z,12.80
2023-05-13T02:55:51.026Z,12.80
2023-05-13T02:58:19.022Z,12.80
2023-05-13T03:00:45.974Z,12.80
2023-05-13T03:03:13.479Z,12.80
2023-05-13T03:05:40.591Z,12.80
2023-05-13T03:08:07.810Z,12.80
2023-05-13T03:10:38.073Z,12.80
2023-05-13T03:13:08.153Z,12.90
2023-05-13T03:15:36.187Z,12.90
2023-05-13T03:18:05.650Z,12.90
2023-05-13T03:20:33.474Z,12.90
2023-05-13T03:23:00.633Z,12.90
2023-05-13T03:25:27.764Z,12.90
2023-05-13T03:27:56.208Z,12.90
2023-05-13T03:30:23.542Z,12.80
2023-05-13T03:32:51.046Z,12.80
2023-05-13T03:35:18.328Z,12.80
2023-05-13T03:37:46.137Z,12.80
2023-05-13T03:40:13.353Z,12.80
2023-05-13T03:42:40.634Z,12.80
2023-05-13T03:45:08.313Z,12.80
2023-05-13T03:47:36.626Z,12.80
2023-05-13T03:50:03.833Z,12.80
2023-05-13T03:52:31.351Z,12.70
2023-05-13T03:54:58.877Z,12.70
2023-05-13T03:57:26.863Z,12.70
2023-05-13T03:59:54.114Z,12.70
2023-05-13T04:02:22.682Z,12.70
2023-05-13T04:04:50.111Z,12.70
2023-05-13T04:07:18.227Z,12.80
2023-05-13T04:09:45.507Z,12.80
2023-05-13T04:12:13.390Z,12.80
2023-05-13T04:14:40.846Z,12.90
2023-05-13T04:17:09.794Z,12.80
2023-05-13T04:19:37.427Z,12.80
2023-05-13T04:22:04.688Z,12.80
2023-05-13T04:24:31.905Z,12.90
2023-05-13T04:27:01.296Z,12.90
2023-05-13T04:29:29.324Z,13.00
2023-05-13T04:31:57.071Z,13.00
2023-05-13T04:34:24.429Z,12.90
2023-05-13T04:36:51.970Z,12.90
2023-05-13T04:39:18.935Z,13.00
2023-05-13T04:41:46.331Z,13.00
2023-05-13T04:44:13.862Z,13.00
2023-05-13T04:46:41.255Z,13.10
2023-05-13T04:49:09.524Z,13.10
2023-05-13T04:51:37.445Z,13.20
2023-05-13T04:54:05.077Z,13.20
2023-05-13T04:56:32.266Z,13.20
2023-05-13T04:59:00.133Z,13.30
2023-05-13T05:01:27.546Z,13.30
2023-05-13T05:03:54.841Z,13.40
2023-05-13T05:06:22.123Z,13.40
2023-05-13T05:08:49.810Z,13.40
2023-05-13T05:11:17.052Z,13.50
2023-05-13T05:13:44.144Z,13.60
2023-05-13T05:16:11.378Z,13.70
2023-05-13T05:18:41.434Z,13.70
2023-05-13T05:21:09.071Z,13.80
2023-05-13T05:23:36.723Z,13.80
2023-05-13T05:26:10.997Z,13.80
2023-05-13T05:28:40.518Z,13.80
2023-05-13T05:31:08.079Z,13.80
2023-05-13T05:33:37.174Z,13.90
2023-05-13T05:36:04.505Z,13.90
2023-05-13T05:38:31.798Z,13.80
2023-05-13T05:41:00.023Z,13.80
2023-05-13T05:43:27.153Z,13.90
2023-05-13T05:45:54.721Z,13.90
2023-05-13T05:48:22.283Z,14.00
2023-05-13T05:50:50.042Z,14.00
2023-05-13T05:53:17.137Z,14.00
2023-05-13T05:55:44.137Z,14.00
2023-05-13T05:58:14.869Z,14.10
2023-05-13T06:00:42.667Z,14.00
2023-05-13T06:03:10.553Z,14.10
2023-05-13T06:05:38.856Z,14.20
2023-05-13T06:08:06.473Z,14.20
2023-05-13T06:10:33.841Z,14.20
2023-05-13T06:13:00.921Z,14.20
2023-05-13T06:15:27.997Z,14.20
2023-05-13T06:17:55.237Z,14.20
2023-05-13T06:20:23.375Z,14.10
2023-05-13T06:22:50.888Z,14.10
2023-05-13T06:25:18.170Z,14.10
2023-05-13T06:27:45.425Z,14.10
2023-05-13T06:30:14.174Z,14.10
2023-05-13T06:32:53.506Z,14.10
2023-05-13T06:35:27.921Z,14.10
2023-05-13T06:37:55.175Z,14.20
2023-05-13T06:40:22.726Z,14.30
2023-05-13T06:42:50.236Z,14.40
2023-05-13T06:45:18.777Z,14.40
2023-05-13T06:47:46.241Z,14.50
2023-05-13T06:50:15.300Z,14.50
2023-05-13T06:52:42.679Z,14.60
2023-05-13T06:55:11.171Z,14.70
2023-05-13T06:57:43.410Z,14.70
2023-05-13T07:00:11.519Z,14.80
2023-05-13T07:02:39.057Z,14.90
2023-05-13T07:05:11.009Z,15.00
2023-05-13T07:07:38.880Z,15.00
2023-05-13T07:10:06.310Z,15.00
2023-05-13T07:12:33.567Z,15.10
2023-05-13T07:15:01.151Z,15.10
2023-05-13T07:17:28.761Z,15.10
2023-05-13T07:19:57.400Z,15.10
2023-05-13T07:22:25.303Z,15.20
2023-05-13T07:24:53.120Z,15.20
2023-05-13T07:27:20.589Z,15.20
2023-05-13T07:29:47.652Z,15.30
2023-05-13T07:32:15.453Z,15.40
2023-05-13T07:34:42.940Z,15.40
2023-05-13T07:37:10.566Z,15.40
2023-05-13T07:39:38.399Z,15.50
2023-05-13T07:42:06.274Z,15.60
2023-05-13T07:44:33.742Z,15.60
2023-05-13T07:47:01.274Z,15.60
2023-05-13T07:49:28.863Z,15.60
2023-05-13T07:51:57.347Z,15.60
2023-05-13T07:54:25.858Z,15.70
2023-05-13T07:56:53.361Z,15.80
2023-05-13T07:59:20.916Z,15.90
2023-05-13T08:01:48.021Z,15.90
2023-05-13T08:04:15.913Z,15.90
2023-05-13T08:06:43.116Z,15.90
2023-05-13T08:09:12.802Z,15.90
2023-05-13T08:11:40.098Z,16.00
2023-05-13T08:14:08.213Z,16.10
2023-05-13T08:16:37.541Z,16.30
2023-05-13T08:19:08.970Z,16.40
2023-05-13T08:21:42.274Z,16.50
2023-05-13T08:24:09.835Z,16.60
2023-05-13T08:26:39.118Z,16.60
2023-05-13T08:29:06.558Z,16.70
2023-05-13T08:31:33.676Z,16.70
2023-05-13T08:34:01.202Z,16.80
2023-05-13T08:36:29.188Z,16.90
2023-05-13T08:38:56.322Z,16.90
2023-05-13T08:41:24.310Z,17.00
2023-05-13T08:43:52.342Z,17.00
2023-05-13T08:46:20.141Z,17.10
2023-05-13T08:48:50.132Z,17.10
2023-05-13T08:51:17.359Z,17.20
2023-05-13T08:53:46.543Z,17.30
2023-05-13T08:56:14.493Z,17.30
2023-05-13T08:58:41.731Z,17.30
2023-05-13T09:01:09.778Z,17.40
2023-05-13T09:03:40.316Z,17.50
2023-05-13T09:06:07.560Z,17.50
2023-05-13T09:08:37.695Z,17.60
2023-05-13T09:11:05.825Z,17.70
2023-05-13T09:13:32.890Z,17.80
2023-05-13T09:16:00.070Z,17.90
2023-05-13T09:18:30.290Z,17.90
2023-05-13T09:20:57.651Z,17.90
2023-05-13T09:23:24.984Z,18.00
2023-05-13T09:25:52.013Z,18.10
2023-05-13T09:28:19.523Z,18.20
2023-05-13T09:30:54.977Z,18.30
2023-05-13T09:33:22.167Z,18.50
2023-05-13T09:35:50.509Z,18.60
2023-05-13T09:38:18.839Z,18.70
2023-05-13T09:40:56.287Z,18.90
2023-05-13T09:43:24.528Z,19.00
2023-05-13T09:45:55.357Z,19.30
2023-05-13T09:48:23.792Z,19.50
2023-05-13T09:50:52.054Z,19.80
2023-05-13T09:56:06.482Z,20.30
2023-05-13T09:58:35.546Z,20.50
2023-05-13T10:01:05.583Z,20.80
2023-05-13T10:03:33.461Z,21.00
2023-05-13T10:06:03.401Z,21.00
2023-05-13T10:08:30.999Z,21.00
2023-05-13T10:10:58.935Z,21.00
2023-05-13T10:13:26.524Z,21.00
2023-05-13T10:15:54.858Z,21.00
2023-05-13T10:18:24.531Z,21.00
2023-05-13T10:20:54.063Z,21.00
2023-05-13T10:23:22.899Z,21.10
2023-05-13T10:25:51.324Z,21.10
2023-05-13T10:28:19.393Z,21.10
2023-05-13T10:30:47.087Z,21.20
2023-05-13T10:33:14.498Z,21.40
2023-05-13T10:35:43.917Z,21.60
2023-05-13T10:38:12.367Z,21.90
2023-05-13T10:40:50.709Z,22.00
2023-05-13T10:43:19.110Z,22.20
2023-05-13T10:45:47.703Z,22.40
2023-05-13T10:48:17.601Z,22.50
2023-05-13T10:50:51.549Z,22.70
2023-05-13T10:53:39.304Z,22.70
2023-05-13T10:56:09.692Z,22.60
2023-05-13T10:58:40.512Z,22.60
2023-05-13T11:01:15.415Z,22.70
2023-05-13T11:03:51.881Z,22.80
2023-05-13T11:06:20.634Z,22.90
2023-05-13T11:08:48.913Z,22.90
2023-05-13T11:11:23.398Z,22.90
2023-05-13T11:13:51.129Z,22.70
2023-05-13T11:16:18.830Z,22.60
2023-05-13T11:18:45.972Z,22.50
2023-05-13T11:21:14.078Z,22.50
2023-05-13T11:24:02.671Z,22.60
2023-05-13T11:26:50.023Z,22.60
2023-05-13T11:29:30.334Z,22.70
2023-05-13T11:32:00.645Z,22.90
2023-05-13T11:34:28.592Z,22.90
2023-05-13T11:37:09.195Z,22.90
2023-05-13T11:39:37.325Z,22.80
2023-05-13T11:42:08.261Z,22.70
2023-05-13T11:44:36.084Z,22.40
2023-05-13T11:47:06.581Z,22.00
2023-05-13T11:49:37.122Z,21.50
2023-05-13T11:52:07.992Z,21.10
2023-05-13T11:54:49.802Z,20.90
2023-05-13T11:57:20.645Z,20.80
2023-05-13T11:59:54.103Z,20.90
2023-05-13T12:02:35.682Z,21.00
2023-05-13T12:05:07.353Z,21.10
2023-05-13T12:07:35.772Z,21.20
2023-05-13T12:10:07.988Z,21.30
2023-05-13T12:12:37.526Z,21.40
2023-05-13T12:15:11.137Z,21.40
2023-05-13T12:17:41.885Z,21.40
2023-05-13T12:20:10.397Z,21.30
2023-05-13T12:22:46.921Z,21.10
2023-05-13T12:25:33.084Z,20.90
2023-05-13T12:28:00.334Z,20.80
2023-05-13T12:30:36.426Z,20.60
2023-05-13T12:33:06.133Z,20.50
2023-05-13T12:35:34.613Z,20.30
2023-05-13T12:38:04.091Z,20.20
2023-05-13T12:40:31.311Z,20.20
2023-05-13T12:43:02.788Z,20.40
2023-05-13T12:45:31.298Z,20.60
2023-05-13T12:47:59.604Z,20.70
2023-05-13T12:50:27.010Z,20.90
2023-05-13T12:52:54.817Z,20.90
2023-05-13T12:55:22.296Z,20.90
2023-05-13T12:57:56.845Z,20.80
2023-05-13T13:00:25.039Z,20.80
2023-05-13T13:02:53.884Z,21.00
2023-05-13T13:05:25.310Z,21.10
2023-05-13T13:07:52.760Z,21.30
2023-05-13T13:10:20.037Z,21.50
2023-05-13T13:12:47.243Z,21.60
2023-05-13T13:15:26.292Z,21.70
2023-05-13T13:17:53.748Z,21.70
2023-05-13T13:20:20.828Z,21.80
2023-05-13T13:22:47.958Z,21.80
2023-05-13T13:25:15.305Z,21.90
2023-05-13T13:27:42.486Z,22.00
2023-05-13T13:30:10.289Z,22.20
2023-05-13T13:32:41.043Z,22.30
2023-05-13T13:35:08.630Z,22.30
2023-05-13T13:37:37.317Z,22.20
2023-05-13T13:40:07.301Z,22.00
2023-05-13T13:42:44.145Z,21.80
2023-05-13T13:45:13.087Z,21.50
2023-05-13T13:47:40.597Z,21.20
2023-05-13T13:50:07.823Z,21.10
2023-05-13T13:52:35.542Z,20.90
2023-05-13T13:55:02.653Z,20.70
2023-05-13T13:57:29.895Z,20.60
2023-05-13T13:59:57.513Z,20.40
2023-05-13T14:02:24.718Z,20.20
2023-05-13T14:04:52.596Z,20.00
2023-05-13T14:07:20.363Z,19.80
2023-05-13T14:09:47.472Z,19.60
2023-05-13T14:12:15.013Z,19.50
2023-05-13T14:14:43.612Z,19.60
2023-05-13T14:17:12.407Z,19.80
2023-05-13T14:19:40.918Z,20.00
2023-05-13T14:22:08.399Z,20.10
2023-05-13T14:24:36.235Z,20.20
2023-05-13T14:27:05.802Z,20.20
2023-05-13T14:29:33.765Z,20.20
2023-05-13T14:32:03.310Z,20.40
2023-05-13T14:34:30.494Z,20.40
2023-05-13T14:36:57.592Z,20.40
2023-05-13T14:39:25.115Z,20.40
2023-05-13T14:41:52.183Z,20.40
2023-05-13T14:44:19.381Z,20.20
2023-05-13T14:46:47.007Z,20.20
2023-05-13T14:49:14.260Z,20.10
2023-05-13T14:51:41.600Z,20.10
2023-05-13T14:54:08.737Z,19.80
2023-05-13T14:56:35.897Z,19.60
2023-05-13T14:59:07.216Z,19.40
2023-05-13T15:01:35.164Z,19.40
2023-05-13T15:04:02.638Z,19.40
2023-05-13T15:06:29.957Z,19.30
2023-05-13T15:08:58.228Z,19.40
2023-05-13T15:11:27.707Z,19.30
2023-05-13T15:13:55.004Z,19.20
2023-05-13T15:16:22.853Z,19.20
2023-05-13T15:18:50.666Z,19.10
2023-05-13T15:21:18.056Z,19.00
2023-05-13T15:23:45.717Z,18.80
2023-05-13T15:26:15.223Z,18.60
2023-05-13T15:28:42.717Z,18.40
2023-05-13T15:31:10.578Z,18.30
2023-05-13T15:33:37.682Z,18.20
2023-05-13T15:36:06.630Z,18.00
2023-05-13T15:38:36.380Z,17.90
2023-05-13T15:41:06.554Z,17.80
2023-05-13T15:43:36.737Z,17.80
2023-05-13T15:46:07.066Z,17.80
2023-05-13T15:48:34.503Z,17.70
2023-05-13T15:51:13.148Z,17.70
2023-05-13T15:53:40.390Z,17.60
2023-05-13T15:56:08.609Z,17.60
2023-05-13T15:58:36.260Z,17.60
2023-05-13T16:01:04.165Z,17.60
2023-05-13T16:03:31.658Z,17.60
2023-05-13T16:05:58.893Z,17.60
2023-05-13T16:08:26.259Z,17.50
2023-05-13T16:10:53.497Z,17.60
2023-05-13T16:13:22.611Z,17.50
2023-05-13T16:15:50.105Z,17.50
2023-05-13T16:18:17.187Z,17.50
2023-05-13T16:20:45.198Z,17.40
2023-05-13T16:23:13.073Z,17.40
2023-05-13T16:25:40.323Z,17.30
2023-05-13T16:28:07.667Z,17.30
2023-05-13T16:30:38.460Z,17.20
2023-05-13T16:33:05.890Z,17.20
2023-05-13T16:35:33.057Z,17.20
2023-05-13T16:38:00.441Z,17.10
2023-05-13T16:40:27.634Z,17.10
2023-05-13T16:42:57.035Z,17.00
2023-05-13T16:45:28.292Z,17.00
2023-05-13T16:47:56.455Z,17.00
2023-05-13T16:50:23.924Z,17.00
2023-05-13T16:52:51.279Z,17.00
2023-05-13T16:55:18.405Z,17.00
2023-05-13T16:57:45.589Z,17.00
2023-05-13T17:00:15.430Z,17.00
2023-05-13T17:02:45.604Z,16.90
2023-05-13T17:05:13.125Z,16.90
2023-05-13T17:07:40.092Z,16.80
2023-05-13T17:10:07.999Z,16.80
2023-05-13T17:12:36.558Z,16.70
2023-05-13T17:15:04.382Z,16.60
2023-05-13T17:17:31.519Z,16.50
2023-05-13T17:19:59.944Z,16.50
2023-05-13T17:22:27.580Z,16.40
2023-05-13T17:24:54.625Z,16.40
2023-05-13T17:27:22.037Z,16.40
2023-05-13T17:29:52.003Z,16.40
2023-05-13T17:32:19.646Z,16.40
2023-05-13T17:34:46.702Z,16.30
2023-05-13T17:37:13.981Z,16.30
2023-05-13T17:39:41.060Z,16.20
2023-05-13T17:42:08.371Z,16.20
2023-05-13T17:44:35.883Z,16.20
2023-05-13T17:47:03.362Z,16.20
2023-05-13T17:49:30.575Z,16.20
2023-05-13T17:51:58.138Z,16.20
2023-05-13T17:54:25.188Z,16.20
2023-05-13T17:56:52.318Z,16.10
2023-05-13T17:59:19.595Z,16.10
2023-05-13T18:01:46.703Z,16.10
2023-05-13T18:04:13.833Z,16.10
2023-05-13T18:06:40.952Z,16.00
2023-05-13T18:09:08.623Z,16.00
2023-05-13T18:11:36.041Z,15.90
2023-05-13T18:14:05.511Z,15.90
2023-05-13T18:16:32.774Z,15.90
2023-05-13T18:19:00.352Z,15.90
2023-05-13T18:21:29.535Z,15.90
2023-05-13T18:23:57.519Z,15.90
2023-05-13T18:26:24.652Z,15.90
2023-05-13T18:28:55.238Z,15.90
2023-05-13T18:31:22.650Z,15.80
2023-05-13T18:33:49.767Z,15.80
2023-05-13T18:36:17.150Z,15.80
2023-05-13T18:38:46.212Z,15.80
2023-05-13T18:41:14.299Z,15.70
2023-05-13T18:43:42.324Z,15.70
2023-05-13T18:46:11.963Z,15.70
2023-05-13T18:48:39.089Z,15.60
2023-05-13T18:51:06.190Z,15.50
2023-05-13T18:53:33.099Z,15.50
2023-05-13T18:56:00.228Z,15.50
2023-05-13T18:58:28.534Z,15.40
2023-05-13T19:00:55.970Z,15.40
2023-05-13T19:03:27.286Z,15.50
2023-05-13T19:05:55.117Z,15.50
2023-05-13T19:08:28.900Z,15.50
2023-05-13T19:10:56.807Z,15.50
2023-05-13T19:13:28.641Z,15.50
2023-05-13T19:16:03.801Z,15.50
2023-05-13T19:18:32.774Z,15.50
2023-05-13T19:21:00.516Z,15.50
2023-05-13T19:23:27.511Z,15.50
2023-05-13T19:25:54.887Z,15.40
2023-05-13T19:28:22.774Z,15.50
2023-05-13T19:30:49.996Z,15.40
2023-05-13T19:33:20.612Z,15.40
2023-05-13T19:35:47.916Z,15.30
2023-05-13T19:38:15.807Z,15.30
2023-05-13T19:40:46.777Z,15.30
2023-05-13T19:43:14.332Z,15.30
2023-05-13T19:45:41.840Z,15.30
2023-05-13T19:48:09.286Z,15.30
2023-05-13T19:50:36.790Z,15.20
2023-05-13T19:53:06.976Z,15.20
2023-05-13T19:55:39.661Z,15.20
2023-05-13T19:58:07.424Z,15.20
2023-05-13T20:00:34.958Z,15.20
2023-05-13T20:03:02.781Z,15.20
2023-05-13T20:05:30.448Z,15.20
2023-05-13T20:07:57.666Z,15.20
2023-05-13T20:10:25.249Z,15.10
2023-05-13T20:12:52.725Z,15.10
2023-05-13T20:15:20.116Z,15.10
2023-05-13T20:17:47.476Z,15.10
2023-05-13T20:20:15.938Z,15.00
2023-05-13T20:22:43.179Z,15.00
2023-05-13T20:25:10.459Z,15.00
2023-05-13T20:27:37.754Z,15.00
2023-05-13T20:30:18.561Z,14.90
2023-05-13T20:32:46.004Z,14.90
2023-05-13T20:35:14.300Z,14.80
2023-05-13T20:37:42.176Z,14.80
2023-05-13T20:40:09.824Z,14.90
2023-05-13T20:42:38.199Z,14.80
2023-05-13T20:45:09.368Z,14.80
2023-05-13T20:47:37.901Z,14.80
2023-05-13T20:50:06.005Z,14.80
2023-05-13T20:52:34.801Z,14.80
2023-05-13T20:55:02.469Z,14.80
2023-05-13T20:57:31.557Z,14.80
2023-05-13T20:59:58.762Z,14.80
2023-05-13T21:02:26.404Z,14.70
2023-05-13T21:04:53.794Z,14.70
2023-05-13T21:07:21.577Z,14.70
2023-05-13T21:09:49.016Z,14.60
2023-05-13T21:12:16.367Z,14.60
2023-05-13T21:14:43.659Z,14.60
2023-05-13T21:17:11.494Z,14.60
2023-05-13T21:19:38.812Z,14.60
2023-05-13T21:22:07.048Z,14.60
2023-05-13T21:24:36.222Z,14.60
2023-05-13T21:27:03.478Z,14.60
2023-05-13T21:29:30.604Z,14.60
2023-05-13T21:31:58.244Z,14.50
2023-05-13T21:34:25.831Z,14.50
2023-05-13T21:36:53.412Z,14.40
2023-05-13T21:39:21.054Z,14.40
2023-05-13T21:41:48.409Z,14.40
2023-05-13T21:44:15.706Z,14.40
2023-05-13T21:46:42.971Z,14.30
2023-05-13T21:49:10.164Z,14.30
2023-05-13T21:51:37.338Z,14.30
2023-05-13T21:54:05.188Z,14.30
2023-05-13T21:56:33.101Z,14.30
2023-05-13T21:59:00.255Z,14.30
2023-05-13T22:01:27.612Z,14.30
2023-05-13T22:03:54.966Z,14.20
2023-05-13T22:06:22.351Z,14.20
2023-05-13T22:08:49.755Z,14.20
2023-05-13T22:11:17.294Z,14.20
2023-05-13T22:13:44.364Z,14.20
2023-05-13T22:16:12.239Z,14.20
2023-05-13T22:18:40.085Z,14.20
2023-05-13T22:21:07.541Z,14.10
2023-05-13T22:23:34.751Z,14.10
2023-05-13T22:26:02.034Z,14.10
2023-05-13T22:28:29.804Z,14.10
2023-05-13T22:30:57.349Z,14.10
2023-05-13T22:33:24.965Z,14.10
2023-05-13T22:35:52.236Z,14.20
2023-05-13T22:38:19.751Z,14.10
2023-05-13T22:40:47.226Z,14.10
2023-05-13T22:43:14.658Z,14.10
2023-05-13T22:45:41.754Z,14.10
2023-05-13T22:48:09.225Z,14.10
2023-05-13T22:50:36.797Z,14.10
2023-05-13T22:53:04.173Z,14.10
2023-05-13T22:55:35.496Z,14.10
2023-05-13T22:58:02.974Z,14.10
2023-05-13T23:00:30.093Z,14.10
2023-05-13T23:02:58.072Z,14.10
2023-05-13T23:05:25.113Z,14.10
2023-05-13T23:07:52.358Z,14.10
2023-05-13T23:10:19.610Z,14.10
2023-05-13T23:12:46.577Z,14.10
2023-05-13T23:15:16.311Z,14.10
2023-05-13T23:17:43.770Z,14.10
2023-05-13T23:20:11.612Z,14.10
2023-05-13T23:22:39.152Z,14.00
2023-05-13T23:25:06.677Z,14.00
2023-05-13T23:27:34.562Z,14.10
2023-05-13T23:30:01.651Z,14.10
2023-05-13T23:32:28.910Z,14.10
2023-05-13T23:34:56.042Z,14.00
2023-05-13T23:37:23.563Z,14.00
2023-05-13T23:39:51.195Z,14.00
2023-05-13T23:42:18.462Z,14.00
2023-05-13T23:44:47.057Z,14.00
2023-05-13T23:47:14.189Z,13.90
2023-05-13T23:49:41.671Z,13.90
2023-05-13T23:52:08.938Z,13.90
2023-05-13T23:54:36.217Z,13.90
2023-05-13T23:57:03.646Z,13.90
2023-05-13T23:59:30.850Z,13.90
